createdAt,value
2022-10-09T00:00:29.071Z,83.16
2022-10-09T00:04:30.654Z,83.12
2022-10-09T00:08:34.829Z,83.30
2022-10-09T00:12:36.350Z,83.24
2022-10-09T00:16:37.886Z,83.35
2022-10-09T00:20:42.285Z,82.81
2022-10-09T00:24:43.832Z,82.90
2022-10-09T00:28:46.376Z,82.83
2022-10-09T00:32:48.171Z,82.54
2022-10-09T00:36:49.958Z,82.72
2022-10-09T00:40:51.988Z,83.14
2022-10-09T00:45:00.025Z,83.09
2022-10-09T00:49:23.526Z,82.89
2022-10-09T00:53:28.454Z,84.25
2022-10-09T00:57:32.686Z,83.16
2022-10-09T01:01:34.501Z,81.91
2022-10-09T01:05:57.343Z,81.36
2022-10-09T01:10:01.859Z,80.98
2022-10-09T01:14:28.857Z,81.11
2022-10-09T01:18:33.473Z,81.30
2022-10-09T01:22:50.839Z,83.42
2022-10-09T01:27:05.107Z,83.63
2022-10-09T01:31:07.939Z,84.18
2022-10-09T01:35:12.561Z,84.42
2022-10-09T01:39:18.265Z,83.06
2022-10-09T01:43:20.052Z,83.95
2022-10-09T01:47:22.215Z,84.06
2022-10-09T01:51:29.767Z,83.77
2022-10-09T01:55:50.137Z,83.44
2022-10-09T01:59:53.454Z,83.66
2022-10-09T02:03:58.339Z,83.73
2022-10-09T02:08:00.143Z,84.23
2022-10-09T02:12:06.636Z,84.03
2022-10-09T02:16:21.380Z,84.21
2022-10-09T02:20:31.020Z,83.89
2022-10-09T02:24:33.065Z,84.05
2022-10-09T02:28:35.217Z,84.34
2022-10-09T02:32:36.790Z,84.07
2022-10-09T02:36:39.232Z,84.01
2022-10-09T02:40:40.889Z,84.51
2022-10-09T02:44:42.600Z,84.42
2022-10-09T02:48:44.685Z,84.60
2022-10-09T02:52:46.447Z,83.85
2022-10-09T02:56:48.099Z,84.06
2022-10-09T03:00:50.755Z,83.31
2022-10-09T03:04:52.317Z,83.64
2022-10-09T03:08:54.831Z,84.12
2022-10-09T03:12:56.440Z,83.44
2022-10-09T03:16:57.881Z,83.78
2022-10-09T03:20:59.474Z,83.84
2022-10-09T03:25:01.012Z,83.70
2022-10-09T03:29:02.554Z,83.73
2022-10-09T03:33:03.990Z,83.82
2022-10-09T03:37:06.045Z,83.52
2022-10-09T03:41:07.653Z,83.29
2022-10-09T03:45:09.600Z,83.69
2022-10-09T03:49:11.108Z,83.83
2022-10-09T03:53:13.839Z,84.05
2022-10-09T03:57:15.402Z,83.86
2022-10-09T04:01:17.060Z,84.21
2022-10-09T04:05:18.812Z,83.63
2022-10-09T04:09:20.317Z,83.45
2022-10-09T04:13:21.736Z,83.85
2022-10-09T04:17:23.373Z,83.71
2022-10-09T04:21:25.046Z,83.57
2022-10-09T04:25:26.676Z,83.61
2022-10-09T04:29:28.176Z,83.87
2022-10-09T04:33:29.932Z,84.59
2022-10-09T04:37:31.454Z,83.80
2022-10-09T04:41:37.446Z,83.65
2022-10-09T04:45:40.598Z,83.98
2022-10-09T04:49:42.191Z,84.20
2022-10-09T04:53:44.601Z,84.20
2022-10-09T04:57:46.106Z,84.23
2022-10-09T05:01:47.642Z,84.33
2022-10-09T05:05:49.223Z,84.34
2022-10-09T05:09:50.823Z,84.37
2022-10-09T05:13:55.560Z,83.53
2022-10-09T05:17:57.204Z,84.07
2022-10-09T05:22:00.257Z,83.85
2022-10-09T05:26:07.296Z,84.02
2022-10-09T05:30:09.539Z,84.33
2022-10-09T05:34:11.415Z,84.28
2022-10-09T05:38:13.051Z,84.29
2022-10-09T05:42:14.558Z,83.86
2022-10-09T05:46:24.712Z,83.40
2022-10-09T05:50:26.264Z,82.82
2022-10-09T05:54:28.012Z,81.94
2022-10-09T05:58:29.538Z,80.43
2022-10-09T06:02:31.078Z,80.34
2022-10-09T06:06:35.672Z,79.41
2022-10-09T06:10:37.474Z,78.16
2022-10-09T06:14:39.098Z,77.62
2022-10-09T06:18:46.761Z,76.13
2022-10-09T06:22:51.738Z,77.07
2022-10-09T06:26:53.402Z,75.67
2022-10-09T06:31:01.592Z,75.06
2022-10-09T06:35:03.200Z,73.68
2022-10-09T06:39:06.824Z,72.46
2022-10-09T06:43:08.554Z,71.08
2022-10-09T06:47:10.094Z,69.56
2022-10-09T06:51:14.732Z,68.43
2022-10-09T06:55:16.312Z,68.46
2022-10-09T06:59:18.052Z,66.60
2022-10-09T07:03:19.566Z,65.61
2022-10-09T07:07:21.317Z,63.38
2022-10-09T07:11:38.726Z,61.80
2022-10-09T07:15:45.903Z,60.29
2022-10-09T07:19:49.104Z,60.82
2022-10-09T07:23:50.663Z,61.58
2022-10-09T07:27:52.273Z,59.16
2022-10-09T07:31:53.786Z,58.91
2022-10-09T07:35:56.900Z,58.40
2022-10-09T07:39:58.401Z,57.63
2022-10-09T07:44:00.380Z,55.80
2022-10-09T07:48:01.884Z,53.04
2022-10-09T07:52:03.406Z,51.99
2022-10-09T07:56:06.184Z,51.73
2022-10-09T08:00:08.445Z,49.41
2022-10-09T08:04:13.836Z,46.58
2022-10-09T08:08:15.569Z,43.51
2022-10-09T08:12:17.122Z,41.82
2022-10-09T08:16:20.555Z,40.41
2022-10-09T08:20:22.452Z,39.18
2022-10-09T08:24:24.009Z,38.13
2022-10-09T08:28:25.918Z,36.01
2022-10-09T08:32:27.525Z,34.93
2022-10-09T08:36:29.624Z,33.19
2022-10-09T08:40:47.037Z,33.07
2022-10-09T08:44:49.803Z,31.23
2022-10-09T08:48:53.879Z,29.78
2022-10-09T08:53:34.685Z,28.64
2022-10-09T08:57:36.361Z,27.42
2022-10-09T09:02:06.050Z,26.90
2022-10-09T09:06:07.604Z,25.82
2022-10-09T09:10:21.363Z,25.64
2022-10-09T09:14:37.789Z,22.75
2022-10-09T09:19:09.515Z,22.59
2022-10-09T09:23:15.752Z,22.50
2022-10-09T09:27:20.507Z,24.63
2022-10-09T09:31:27.200Z,24.00
2022-10-09T09:36:09.425Z,23.13
2022-10-09T09:40:36.823Z,20.78
2022-10-09T09:44:42.829Z,20.82
2022-10-09T09:48:48.535Z,19.61
2022-10-09T09:52:50.721Z,19.56
2022-10-09T09:57:14.826Z,17.65
2022-10-09T10:01:22.769Z,18.49
2022-10-09T10:05:27.289Z,18.94
2022-10-09T10:09:28.996Z,17.04
2022-10-09T10:13:39.476Z,15.98
2022-10-09T10:17:41.334Z,15.53
2022-10-09T10:22:01.332Z,15.31
2022-10-09T10:26:40.023Z,15.72
2022-10-09T10:30:42.811Z,15.59
2022-10-09T10:35:15.036Z,14.90
2022-10-09T10:39:50.879Z,13.76
2022-10-09T10:44:06.907Z,14.33
2022-10-09T10:48:22.213Z,14.37
2022-10-09T10:52:35.948Z,13.51
2022-10-09T10:56:53.281Z,11.85
2022-10-09T11:01:11.698Z,13.56
2022-10-09T11:05:31.736Z,12.09
2022-10-09T11:10:02.733Z,12.43
2022-10-09T11:14:29.128Z,11.69
2022-10-09T11:18:52.513Z,10.82
2022-10-09T11:23:10.597Z,11.58
2022-10-09T11:27:24.762Z,10.38
2022-10-09T11:31:34.989Z,11.21
2022-10-09T11:35:46.125Z,10.79
2022-10-09T11:39:48.214Z,11.12
2022-10-09T11:44:13.608Z,9.80
2022-10-09T11:48:42.576Z,12.27
2022-10-09T11:53:09.962Z,11.02
2022-10-09T11:57:15.107Z,10.59
2022-10-09T12:01:24.007Z,10.59
2022-10-09T12:05:37.880Z,10.12
2022-10-09T12:09:47.446Z,9.79
2022-10-09T12:13:58.282Z,10.48
2022-10-09T12:17:59.985Z,10.98
2022-10-09T12:22:13.321Z,10.39
2022-10-09T12:26:21.364Z,8.43
2022-10-09T12:30:29.139Z,8.16
2022-10-09T12:34:36.177Z,8.45
2022-10-09T12:38:38.236Z,8.48
2022-10-09T12:42:41.257Z,8.91
2022-10-09T12:46:43.097Z,8.30
2022-10-09T12:50:44.743Z,10.41
2022-10-09T12:54:46.272Z,10.77
2022-10-09T12:58:48.021Z,11.19
2022-10-09T13:02:49.974Z,10.35
2022-10-09T13:06:53.431Z,8.80
2022-10-09T13:10:55.807Z,9.86
2022-10-09T13:15:04.096Z,9.81
2022-10-09T13:19:24.474Z,8.78
2022-10-09T13:23:30.209Z,9.58
2022-10-09T13:27:35.258Z,8.26
2022-10-09T13:31:37.111Z,8.45
2022-10-09T13:35:42.027Z,10.03
2022-10-09T13:39:43.702Z,9.42
2022-10-09T13:43:45.767Z,9.04
2022-10-09T13:47:47.866Z,9.86
2022-10-09T13:51:49.809Z,9.36
2022-10-09T13:55:59.986Z,9.91
2022-10-09T14:00:04.014Z,9.69
2022-10-09T14:04:13.674Z,9.56
2022-10-09T14:08:15.473Z,8.98
2022-10-09T14:12:17.227Z,10.02
2022-10-09T14:16:21.509Z,10.45
2022-10-09T14:20:25.128Z,9.66
2022-10-09T14:24:27.575Z,10.19
2022-10-09T14:28:29.292Z,11.34
2022-10-09T14:32:41.754Z,15.09
2022-10-09T14:36:46.549Z,20.53
2022-10-09T14:40:48.316Z,23.41
2022-10-09T14:44:52.151Z,26.55
2022-10-09T14:48:57.928Z,28.58
2022-10-09T14:52:59.606Z,30.44
2022-10-09T14:57:03.544Z,31.78
2022-10-09T15:01:05.643Z,32.54
2022-10-09T15:05:08.492Z,33.99
2022-10-09T15:09:10.275Z,35.05
2022-10-09T15:13:12.009Z,34.97
2022-10-09T15:17:13.728Z,35.67
2022-10-09T15:21:18.616Z,36.24
2022-10-09T15:25:20.305Z,36.97
2022-10-09T15:29:22.110Z,38.01
2022-10-09T15:33:23.718Z,38.25
2022-10-09T15:37:25.380Z,39.18
2022-10-09T15:41:30.253Z,38.48
2022-10-09T15:45:34.606Z,38.42
2022-10-09T15:49:36.369Z,39.87
2022-10-09T15:53:38.792Z,39.99
2022-10-09T15:57:40.500Z,40.09
2022-10-09T16:01:42.770Z,40.30
2022-10-09T16:05:50.679Z,40.47
2022-10-09T16:09:54.588Z,41.17
2022-10-09T16:13:57.476Z,41.88
2022-10-09T16:17:59.067Z,42.07
2022-10-09T16:22:00.624Z,42.61
2022-10-09T16:26:03.612Z,43.52
2022-10-09T16:30:05.664Z,44.04
2022-10-09T16:34:07.977Z,44.72
2022-10-09T16:38:09.483Z,44.82
2022-10-09T16:42:11.794Z,45.14
2022-10-09T16:46:23.301Z,45.33
2022-10-09T16:50:25.605Z,47.39
2022-10-09T16:54:30.465Z,49.54
2022-10-09T16:58:32.153Z,48.56
2022-10-09T17:02:33.697Z,50.26
2022-10-09T17:06:35.596Z,51.47
2022-10-09T17:10:41.820Z,52.70
2022-10-09T17:14:43.509Z,49.54
2022-10-09T17:18:46.789Z,53.68
2022-10-09T17:22:49.033Z,53.93
2022-10-09T17:26:50.798Z,54.90
2022-10-09T17:30:52.415Z,54.93
2022-10-09T17:34:54.084Z,54.75
2022-10-09T17:38:56.469Z,55.98
2022-10-09T17:42:58.215Z,53.91
2022-10-09T17:47:00.849Z,55.26
2022-10-09T17:51:06.357Z,55.04
2022-10-09T17:55:11.230Z,54.61
2022-10-09T17:59:12.867Z,53.84
2022-10-09T18:03:15.536Z,54.34
2022-10-09T18:07:19.414Z,55.06
2022-10-09T18:11:23.430Z,54.75
2022-10-09T18:15:24.983Z,55.11
2022-10-09T18:19:26.665Z,55.65
2022-10-09T18:23:28.258Z,56.22
2022-10-09T18:27:29.901Z,57.43
2022-10-09T18:31:32.273Z,57.44
2022-10-09T18:35:38.586Z,58.14
2022-10-09T18:39:40.125Z,58.72
2022-10-09T18:43:41.875Z,59.48
2022-10-09T18:47:44.306Z,60.34
2022-10-09T18:51:47.253Z,60.77
2022-10-09T18:55:49.227Z,61.57
2022-10-09T18:59:52.683Z,61.66
2022-10-09T19:03:55.788Z,61.93
2022-10-09T19:07:57.614Z,62.52
2022-10-09T19:11:59.254Z,63.09
2022-10-09T19:16:04.569Z,63.30
2022-10-09T19:20:06.755Z,63.74
2022-10-09T19:24:08.762Z,63.99
2022-10-09T19:28:11.656Z,65.04
2022-10-09T19:32:13.338Z,65.46
2022-10-09T19:36:15.290Z,66.03
2022-10-09T19:40:16.844Z,66.16
2022-10-09T19:44:21.217Z,66.33
2022-10-09T19:48:24.290Z,66.33
2022-10-09T19:52:26.103Z,67.36
2022-10-09T19:56:30.909Z,67.22
2022-10-09T20:00:32.665Z,67.02
2022-10-09T20:04:34.466Z,67.31
2022-10-09T20:08:37.891Z,67.79
2022-10-09T20:12:39.764Z,68.11
2022-10-09T20:16:41.320Z,68.38
2022-10-09T20:20:47.750Z,69.04
2022-10-09T20:24:53.832Z,69.09
2022-10-09T20:28:55.743Z,68.90
2022-10-09T20:32:59.479Z,69.35
2022-10-09T20:37:01.457Z,69.29
2022-10-09T20:41:08.252Z,69.34
2022-10-09T20:45:09.964Z,69.04
2022-10-09T20:49:13.859Z,69.66
2022-10-09T20:53:16.607Z,69.59
2022-10-09T20:57:18.817Z,69.74
2022-10-09T21:01:21.724Z,69.61
2022-10-09T21:05:23.647Z,70.44
2022-10-09T21:09:28.484Z,69.97
2022-10-09T21:13:33.264Z,69.99
2022-10-09T21:17:35.323Z,70.28
2022-10-09T21:21:37.082Z,69.55
2022-10-09T21:25:39.235Z,70.18
2022-10-09T21:29:40.934Z,69.87
2022-10-09T21:33:42.596Z,70.16
2022-10-09T21:37:44.203Z,69.99
2022-10-09T21:41:45.906Z,70.30
2022-10-09T21:45:50.101Z,70.31
2022-10-09T21:49:51.678Z,69.98
2022-10-09T21:53:54.484Z,70.05
2022-10-09T21:57:56.150Z,69.94
2022-10-09T22:01:57.732Z,69.99
2022-10-09T22:06:00.318Z,69.87
2022-10-09T22:10:02.281Z,69.51
2022-10-09T22:14:05.458Z,70.19
2022-10-09T22:18:07.061Z,69.61
2022-10-09T22:22:08.855Z,69.15
2022-10-09T22:26:13.725Z,69.39
2022-10-09T22:30:15.966Z,68.96
2022-10-09T22:34:18.622Z,69.14
2022-10-09T22:38:20.260Z,68.96
2022-10-09T22:42:21.891Z,68.91
2022-10-09T22:46:30.165Z,68.54
2022-10-09T22:50:31.778Z,67.92
2022-10-09T22:54:33.446Z,68.45
2022-10-09T22:58:35.771Z,67.99
2022-10-09T23:02:37.396Z,68.09
2022-10-09T23:06:40.167Z,68.01
2022-10-09T23:10:42.003Z,67.63
2022-10-09T23:14:43.660Z,68.23
2022-10-09T23:18:45.678Z,68.13
2022-10-09T23:22:47.561Z,67.76
2022-10-09T23:26:50.887Z,67.84
2022-10-09T23:30:52.644Z,67.66
2022-10-09T23:34:54.205Z,67.68
2022-10-09T23:38:56.796Z,67.71
2022-10-09T23:42:58.469Z,67.51
2022-10-09T23:47:00.135Z,66.93
2022-10-09T23:51:02.571Z,66.88
2022-10-09T23:55:04.696Z,67.27
2022-10-09T23:59:06.480Z,67.09
